createdAt,value
2018-11-10T00:00:18.582Z,16.50
2018-11-10T00:02:48.235Z,16.40
2018-11-10T00:05:17.882Z,16.30
2018-11-10T00:07:47.084Z,16.20
2018-11-10T00:10:16.551Z,16.10
2018-11-10T00:12:45.960Z,15.90
2018-11-10T00:15:21.617Z,15.80
2018-11-10T00:17:50.594Z,15.70
2018-11-10T00:20:19.720Z,15.60
2018-11-10T00:22:48.706Z,15.60
2018-11-10T00:25:17.595Z,15.50
2018-11-10T00:27:48.396Z,15.50
2018-11-10T00:30:18.643Z,15.50
2018-11-10T00:32:47.826Z,15.50
2018-11-10T00:35:18.509Z,15.50
2018-11-10T00:37:47.550Z,15.50
2018-11-10T00:40:17.095Z,15.50
2018-11-10T00:42:46.459Z,15.50
2018-11-10T00:45:15.334Z,15.60
2018-11-10T00:47:44.217Z,15.70
2018-11-10T00:50:13.209Z,15.60
2018-11-10T00:52:42.127Z,15.60
2018-11-10T00:55:11.415Z,15.40
2018-11-10T00:57:40.324Z,15.30
2018-11-10T01:00:10.859Z,15.30
2018-11-10T01:02:40.202Z,15.20
2018-11-10T01:05:09.145Z,15.10
2018-11-10T01:07:38.653Z,15.10
2018-11-10T01:10:09.063Z,15.10
2018-11-10T01:12:37.999Z,15.10
2018-11-10T01:15:08.722Z,15.00
2018-11-10T01:17:37.675Z,15.00
2018-11-10T01:20:07.715Z,15.10
2018-11-10T01:22:36.823Z,15.20
2018-11-10T01:25:05.890Z,15.20
2018-11-10T01:27:35.081Z,15.20
2018-11-10T01:30:03.994Z,15.20
2018-11-10T01:32:33.199Z,15.30
2018-11-10T01:35:02.083Z,15.30
2018-11-10T01:37:31.108Z,15.40
2018-11-10T01:40:00.279Z,15.50
2018-11-10T01:42:29.175Z,15.50
2018-11-10T01:44:58.367Z,15.40
2018-11-10T01:47:27.320Z,15.40
2018-11-10T01:49:56.207Z,15.30
2018-11-10T01:52:25.649Z,15.20
2018-11-10T01:54:54.533Z,15.10
2018-11-10T01:57:23.411Z,15.10
2018-11-10T01:59:52.298Z,15.20
2018-11-10T02:02:21.425Z,15.10
2018-11-10T02:04:50.307Z,15.10
2018-11-10T02:07:19.189Z,14.90
2018-11-10T02:09:48.398Z,14.90
2018-11-10T02:12:17.306Z,14.80
2018-11-10T02:14:46.343Z,14.90
2018-11-10T02:17:16.294Z,14.90
2018-11-10T02:19:45.494Z,14.90
2018-11-10T02:22:14.379Z,14.90
2018-11-10T02:24:43.258Z,14.90
2018-11-10T02:27:17.727Z,14.90
2018-11-10T02:29:46.848Z,14.90
2018-11-10T02:32:15.730Z,14.90
2018-11-10T02:34:44.614Z,14.90
2018-11-10T02:37:13.702Z,14.90
2018-11-10T02:39:42.903Z,14.90
2018-11-10T02:42:11.906Z,14.80
2018-11-10T02:44:40.823Z,14.80
2018-11-10T02:47:09.698Z,14.80
2018-11-10T02:49:38.586Z,14.70
2018-11-10T02:52:07.487Z,14.70
2018-11-10T02:54:36.387Z,14.60
2018-11-10T02:57:05.498Z,14.60
2018-11-10T02:59:34.740Z,14.70
2018-11-10T03:02:03.962Z,14.70
2018-11-10T03:04:33.143Z,14.60
2018-11-10T03:07:02.506Z,14.50
2018-11-10T03:09:31.535Z,14.40
2018-11-10T03:12:00.704Z,14.30
2018-11-10T03:14:29.587Z,14.30
2018-11-10T03:16:58.487Z,14.30
2018-11-10T03:19:27.371Z,14.30
2018-11-10T03:21:56.270Z,14.30
2018-11-10T03:24:25.171Z,14.30
2018-11-10T03:26:54.360Z,14.30
2018-11-10T03:29:23.262Z,14.40
2018-11-10T03:31:52.147Z,14.30
2018-11-10T03:34:21.040Z,14.30
2018-11-10T03:36:50.423Z,14.30
2018-11-10T03:39:19.340Z,14.40
2018-11-10T03:41:48.227Z,14.40
2018-11-10T03:44:17.407Z,14.40
2018-11-10T03:46:46.494Z,14.40
2018-11-10T03:49:15.370Z,14.30
2018-11-10T03:51:44.248Z,14.20
2018-11-10T03:54:13.984Z,14.20
2018-11-10T03:56:44.958Z,14.10
2018-11-10T03:59:14.103Z,14.10
2018-11-10T04:01:43.278Z,14.00
2018-11-10T04:04:12.200Z,14.00
2018-11-10T04:06:41.075Z,14.00
2018-11-10T04:09:09.985Z,14.00
2018-11-10T04:11:38.846Z,14.00
2018-11-10T04:14:07.745Z,13.90
2018-11-10T04:16:36.969Z,13.90
2018-11-10T04:19:05.879Z,14.00
2018-11-10T04:21:35.396Z,14.00
2018-11-10T04:24:04.726Z,13.90
2018-11-10T04:26:33.618Z,13.90
2018-11-10T04:29:02.955Z,13.80
2018-11-10T04:31:31.842Z,13.80
2018-11-10T04:34:00.732Z,13.80
2018-11-10T04:36:29.608Z,13.80
2018-11-10T04:38:58.535Z,13.80
2018-11-10T04:41:27.722Z,13.80
2018-11-10T04:43:56.607Z,13.80
2018-11-10T04:46:25.487Z,13.80
2018-11-10T04:48:54.367Z,13.70
2018-11-10T04:51:23.278Z,13.70
2018-11-10T04:53:52.373Z,13.70
2018-11-10T04:56:21.286Z,13.80
2018-11-10T04:58:50.188Z,13.70
2018-11-10T05:01:19.420Z,13.80
2018-11-10T05:03:48.478Z,13.80
2018-11-10T05:06:17.599Z,13.80
2018-11-10T05:08:46.483Z,13.80
2018-11-10T05:11:15.665Z,13.80
2018-11-10T05:13:44.558Z,13.80
2018-11-10T05:16:13.435Z,13.70
2018-11-10T05:18:42.770Z,13.70
2018-11-10T05:21:11.691Z,13.80
2018-11-10T05:23:40.598Z,13.90
2018-11-10T05:26:09.484Z,14.00
2018-11-10T05:28:38.620Z,14.00
2018-11-10T05:31:07.875Z,14.10
2018-11-10T05:33:36.970Z,14.10
2018-11-10T05:36:05.854Z,14.10
2018-11-10T05:38:35.939Z,14.10
2018-11-10T05:41:05.205Z,14.10
2018-11-10T05:43:34.414Z,14.20
2018-11-10T05:46:03.547Z,14.20
2018-11-10T05:48:33.115Z,14.30
2018-11-10T05:51:02.039Z,14.40
2018-11-10T05:53:32.156Z,14.30
2018-11-10T05:56:01.036Z,14.30
2018-11-10T05:58:31.326Z,14.30
2018-11-10T06:01:00.693Z,14.20
2018-11-10T06:03:30.873Z,14.20
2018-11-10T06:05:59.755Z,14.20
2018-11-10T06:08:29.242Z,14.30
2018-11-10T06:10:58.457Z,14.30
2018-11-10T06:13:27.374Z,14.20
2018-11-10T06:15:56.436Z,14.10
2018-11-10T06:18:25.526Z,14.10
2018-11-10T06:20:54.506Z,14.20
2018-11-10T06:23:26.791Z,14.20
2018-11-10T06:25:55.749Z,14.10
2018-11-10T06:28:24.634Z,14.20
2018-11-10T06:30:54.159Z,14.30
2018-11-10T06:33:23.043Z,14.30
2018-11-10T06:35:51.955Z,14.30
2018-11-10T06:38:21.448Z,14.10
2018-11-10T06:40:50.870Z,14.10
2018-11-10T06:43:19.770Z,14.20
2018-11-10T06:45:48.871Z,14.30
2018-11-10T06:48:17.748Z,14.30
2018-11-10T06:50:47.124Z,14.20
2018-11-10T06:53:16.950Z,14.20
2018-11-10T06:55:46.782Z,14.20
2018-11-10T06:58:15.781Z,14.20
2018-11-10T07:00:44.860Z,14.20
2018-11-10T07:03:15.218Z,14.20
2018-11-10T07:05:44.683Z,14.10
2018-11-10T07:08:13.787Z,14.00
2018-11-10T07:10:42.776Z,14.10
2018-11-10T07:13:11.787Z,14.10
2018-11-10T07:15:40.698Z,14.20
2018-11-10T07:18:10.011Z,14.30
2018-11-10T07:20:38.880Z,14.40
2018-11-10T07:23:08.329Z,14.40
2018-11-10T07:25:37.494Z,14.40
2018-11-10T07:28:06.721Z,14.40
2018-11-10T07:30:35.690Z,14.30
2018-11-10T07:33:05.509Z,14.40
2018-11-10T07:35:34.374Z,14.50
2018-11-10T07:38:04.300Z,14.60
2018-11-10T07:40:33.578Z,14.70
2018-11-10T07:43:02.799Z,14.70
2018-11-10T07:45:32.237Z,14.70
2018-11-10T07:48:01.190Z,14.70
2018-11-10T07:50:30.070Z,14.60
2018-11-10T07:52:59.196Z,14.80
2018-11-10T07:55:28.283Z,14.80
2018-11-10T07:57:57.219Z,14.80
2018-11-10T08:00:35.853Z,14.80
2018-11-10T08:03:04.922Z,14.70
2018-11-10T08:05:34.999Z,14.70
2018-11-10T08:08:04.864Z,14.80
2018-11-10T08:10:34.665Z,14.90
2018-11-10T08:13:07.524Z,15.00
2018-11-10T08:18:47.317Z,15.00
2018-11-10T08:21:16.616Z,15.00
2018-11-10T08:23:45.902Z,15.00
2018-11-10T08:26:14.774Z,14.90
2018-11-10T08:28:44.086Z,14.90
2018-11-10T08:31:13.297Z,14.90
2018-11-10T08:33:42.478Z,14.90
2018-11-10T08:36:11.652Z,15.00
2018-11-10T08:38:40.586Z,14.90
2018-11-10T08:41:09.478Z,14.90
2018-11-10T08:43:38.421Z,14.80
2018-11-10T08:46:07.343Z,14.90
2018-11-10T08:48:36.918Z,15.00
2018-11-10T08:51:06.001Z,15.00
2018-11-10T08:53:35.461Z,15.20
2018-11-10T08:56:07.546Z,15.40
2018-11-10T08:58:37.230Z,15.60
2018-11-10T09:01:06.368Z,15.70
2018-11-10T09:03:35.243Z,15.60
2018-11-10T09:06:04.825Z,15.70
2018-11-10T09:08:34.243Z,15.60
2018-11-10T09:11:03.941Z,15.60
2018-11-10T09:13:32.858Z,15.70
2018-11-10T09:16:01.763Z,15.70
2018-11-10T09:18:30.651Z,15.90
2018-11-10T09:20:59.790Z,16.00
2018-11-10T09:23:28.694Z,16.20
2018-11-10T09:25:57.626Z,16.20
2018-11-10T09:28:26.814Z,16.20
2018-11-10T09:30:55.730Z,16.20
2018-11-10T09:33:24.870Z,16.50
2018-11-10T09:35:53.787Z,16.60
2018-11-10T09:38:22.700Z,16.80
2018-11-10T09:40:51.570Z,17.00
2018-11-10T09:43:20.484Z,17.20
2018-11-10T09:45:49.629Z,17.40
2018-11-10T09:48:19.139Z,17.60
2018-11-10T09:50:48.343Z,17.70
2018-11-10T09:53:18.046Z,17.80
2018-11-10T09:55:46.947Z,17.90
2018-11-10T09:58:16.227Z,17.90
2018-11-10T10:00:45.135Z,17.90
2018-11-10T10:03:14.024Z,18.00
2018-11-10T10:05:42.915Z,17.90
2018-11-10T10:08:12.040Z,17.90
2018-11-10T10:10:40.915Z,17.80
2018-11-10T10:13:10.181Z,17.90
2018-11-10T10:15:48.152Z,18.10
2018-11-10T10:18:17.423Z,18.30
2018-11-10T10:20:46.522Z,18.30
2018-11-10T10:23:15.438Z,18.50
2018-11-10T10:25:44.642Z,18.70
2018-11-10T10:28:13.596Z,18.90
2018-11-10T10:30:42.510Z,19.20
2018-11-10T10:33:11.390Z,19.50
2018-11-10T10:35:40.489Z,19.70
2018-11-10T10:38:09.814Z,20.10
2018-11-10T10:40:38.800Z,20.10
2018-11-10T10:43:08.085Z,20.20
2018-11-10T10:45:37.715Z,20.40
2018-11-10T10:48:06.629Z,20.50
2018-11-10T10:50:35.847Z,20.50
2018-11-10T10:53:05.193Z,20.40
2018-11-10T10:55:34.538Z,20.40
2018-11-10T10:58:03.444Z,20.40
2018-11-10T11:00:37.916Z,20.70
2018-11-10T11:03:12.438Z,21.10
2018-11-10T11:05:42.398Z,21.20
2018-11-10T11:08:12.306Z,21.40
2018-11-10T11:10:41.198Z,21.50
2018-11-10T11:13:10.395Z,21.60
2018-11-10T11:15:46.169Z,21.60
2018-11-10T11:18:15.123Z,21.70
2018-11-10T11:20:44.185Z,21.70
2018-11-10T11:23:13.109Z,21.60
2018-11-10T11:25:42.036Z,21.40
2018-11-10T11:28:15.654Z,21.30
2018-11-10T11:30:45.097Z,21.30
2018-11-10T11:33:14.618Z,21.50
2018-11-10T11:35:43.824Z,21.60
2018-11-10T11:38:13.751Z,21.40
2018-11-10T11:40:42.670Z,21.10
2018-11-10T11:43:37.126Z,20.90
2018-11-10T11:46:08.290Z,21.00
2018-11-10T11:48:37.419Z,21.10
2018-11-10T11:51:07.109Z,21.10
2018-11-10T11:53:48.121Z,21.10
2018-11-10T11:56:32.974Z,21.40
2018-11-10T11:59:17.718Z,21.30
2018-11-10T12:02:07.252Z,21.50
2018-11-10T12:04:37.919Z,21.80
2018-11-10T12:07:07.707Z,22.20
2018-11-10T12:09:36.684Z,22.30
2018-11-10T12:12:16.170Z,22.30
2018-11-10T12:14:46.550Z,22.10
2018-11-10T12:17:15.796Z,21.70
2018-11-10T12:19:46.259Z,21.30
2018-11-10T12:22:15.296Z,21.10
2018-11-10T12:24:45.144Z,21.10
2018-11-10T12:27:14.671Z,21.00
2018-11-10T12:29:43.749Z,20.90
2018-11-10T12:32:13.132Z,21.00
2018-11-10T12:34:42.986Z,21.40
2018-11-10T12:37:12.233Z,21.80
2018-11-10T12:39:41.842Z,22.10
2018-11-10T12:42:11.063Z,22.20
2018-11-10T12:44:40.006Z,22.30
2018-11-10T12:47:10.527Z,22.30
2018-11-10T12:49:39.710Z,22.30
2018-11-10T12:52:09.422Z,22.10
2018-11-10T12:54:39.156Z,22.30
2018-11-10T12:57:08.819Z,22.30
2018-11-10T12:59:38.163Z,22.20
2018-11-10T13:02:07.233Z,22.30
2018-11-10T13:04:38.363Z,22.40
2018-11-10T13:07:10.676Z,22.30
2018-11-10T13:09:40.026Z,22.30
2018-11-10T13:12:09.661Z,22.20
2018-11-10T13:14:39.070Z,22.40
2018-11-10T13:17:12.222Z,22.50
2018-11-10T13:19:42.005Z,22.50
2018-11-10T13:22:11.392Z,22.60
2018-11-10T13:24:40.685Z,22.50
2018-11-10T13:27:10.213Z,22.30
2018-11-10T13:29:39.265Z,21.90
2018-11-10T13:32:08.192Z,21.60
2018-11-10T13:34:42.448Z,21.50
2018-11-10T13:37:18.765Z,21.40
2018-11-10T13:40:13.451Z,21.30
2018-11-10T13:42:45.815Z,21.10
2018-11-10T13:45:15.793Z,21.00
2018-11-10T13:47:45.796Z,20.80
2018-11-10T13:50:15.436Z,20.70
2018-11-10T13:52:46.338Z,20.60
2018-11-10T13:55:15.572Z,20.60
2018-11-10T13:57:46.345Z,20.60
2018-11-10T14:00:17.447Z,20.70
2018-11-10T14:02:46.907Z,20.80
2018-11-10T14:05:16.027Z,20.70
2018-11-10T14:07:45.136Z,20.50
2018-11-10T14:10:15.514Z,20.40
2018-11-10T14:12:46.930Z,20.40
2018-11-10T14:15:16.595Z,20.50
2018-11-10T14:17:46.118Z,20.70
2018-11-10T14:20:16.781Z,20.80
2018-11-10T14:22:49.797Z,20.70
2018-11-10T14:25:28.444Z,20.50
2018-11-10T14:27:58.924Z,20.40
2018-11-10T14:30:28.364Z,20.20
2018-11-10T14:32:57.757Z,20.10
2018-11-10T14:35:27.302Z,19.80
2018-11-10T14:37:57.036Z,19.60
2018-11-10T14:43:11.945Z,19.30
2018-11-10T14:45:40.890Z,19.20
2018-11-10T14:48:10.122Z,19.20
2018-11-10T14:50:42.346Z,19.10
2018-11-10T14:53:13.580Z,19.00
2018-11-10T14:55:43.286Z,18.90
2018-11-10T14:58:12.594Z,19.00
2018-11-10T15:00:41.523Z,19.00
2018-11-10T15:03:14.900Z,19.00
2018-11-10T15:05:47.851Z,19.00
2018-11-10T15:08:19.607Z,19.00
2018-11-10T15:10:49.239Z,19.00
2018-11-10T15:13:26.945Z,18.90
2018-11-10T15:16:06.386Z,18.90
2018-11-10T15:18:35.448Z,19.00
2018-11-10T15:21:04.787Z,19.00
2018-11-10T15:23:33.918Z,19.00
2018-11-10T15:26:02.938Z,19.00
2018-11-10T15:28:32.419Z,19.10
2018-11-10T15:31:01.507Z,19.10
2018-11-10T15:33:30.781Z,19.10
2018-11-10T15:36:00.024Z,19.00
2018-11-10T15:38:29.385Z,19.10
2018-11-10T15:40:58.960Z,19.00
2018-11-10T15:43:28.347Z,19.00
2018-11-10T15:45:58.002Z,19.00
2018-11-10T15:48:28.521Z,18.90
2018-11-10T15:50:57.976Z,18.90
2018-11-10T15:53:28.629Z,18.90
2018-11-10T15:55:57.947Z,18.80
2018-11-10T15:58:27.962Z,18.80
2018-11-10T16:00:59.913Z,18.80
2018-11-10T16:03:29.857Z,18.80
2018-11-10T16:05:59.461Z,18.70
2018-11-10T16:08:29.279Z,18.70
2018-11-10T16:10:58.758Z,18.50
2018-11-10T16:13:28.195Z,18.30
2018-11-10T16:15:58.353Z,18.20
2018-11-10T16:18:27.819Z,18.20
2018-11-10T16:20:57.260Z,18.10
2018-11-10T16:23:27.480Z,18.00
2018-11-10T16:25:56.634Z,17.90
2018-11-10T16:28:27.065Z,17.80
2018-11-10T16:30:57.073Z,17.80
2018-11-10T16:33:26.612Z,17.80
2018-11-10T16:35:55.925Z,17.70
2018-11-10T16:38:25.469Z,17.60
2018-11-10T16:40:55.949Z,17.60
2018-11-10T16:43:25.073Z,17.40
2018-11-10T16:45:54.406Z,17.30
2018-11-10T16:48:23.678Z,17.20
2018-11-10T16:50:52.760Z,17.20
2018-11-10T16:53:22.118Z,17.40
2018-11-10T16:55:51.037Z,17.60
2018-11-10T16:58:20.019Z,17.80
2018-11-10T17:00:49.005Z,17.80
2018-11-10T17:03:18.151Z,17.80
2018-11-10T17:05:47.354Z,17.80
2018-11-10T17:08:16.593Z,17.70
2018-11-10T17:10:45.468Z,17.60
2018-11-10T17:13:15.092Z,17.60
2018-11-10T17:15:44.752Z,17.70
2018-11-10T17:18:14.914Z,17.70
2018-11-10T17:20:44.230Z,17.80
2018-11-10T17:23:13.572Z,17.80
2018-11-10T17:25:42.560Z,17.90
2018-11-10T17:28:12.049Z,17.80
2018-11-10T17:30:42.377Z,18.00
2018-11-10T17:33:12.544Z,18.10
2018-11-10T17:35:42.978Z,18.10
2018-11-10T17:38:12.954Z,18.10
2018-11-10T17:40:42.649Z,18.00
2018-11-10T17:43:12.511Z,18.00
2018-11-10T17:45:42.157Z,17.90
2018-11-10T17:48:11.802Z,17.90
2018-11-10T17:50:41.912Z,18.00
2018-11-10T17:53:10.974Z,18.00
2018-11-10T17:55:40.020Z,18.00
2018-11-10T17:58:09.243Z,18.00
2018-11-10T18:00:38.529Z,17.90
2018-11-10T18:03:07.823Z,17.90
2018-11-10T18:05:37.325Z,17.80
2018-11-10T18:08:07.354Z,17.80
2018-11-10T18:10:36.342Z,17.70
2018-11-10T18:13:05.487Z,17.50
2018-11-10T18:15:34.438Z,17.40
2018-11-10T18:18:05.530Z,17.40
2018-11-10T18:20:34.934Z,17.40
2018-11-10T18:23:03.971Z,17.50
2018-11-10T18:25:33.427Z,17.40
2018-11-10T18:28:02.664Z,17.30
2018-11-10T18:30:31.575Z,17.20
2018-11-10T18:33:00.809Z,17.10
2018-11-10T18:35:29.767Z,17.00
2018-11-10T18:37:59.019Z,17.00
2018-11-10T18:40:28.243Z,17.00
2018-11-10T18:42:57.348Z,17.00
2018-11-10T18:45:26.750Z,16.90
2018-11-10T18:47:55.960Z,16.80
2018-11-10T18:50:24.896Z,16.80
2018-11-10T18:52:53.868Z,16.80
2018-11-10T18:55:23.147Z,16.80
2018-11-10T18:57:52.536Z,16.80
2018-11-10T19:00:21.846Z,16.80
2018-11-10T19:02:51.345Z,16.90
2018-11-10T19:05:20.707Z,16.80
2018-11-10T19:07:49.668Z,16.80
2018-11-10T19:10:19.251Z,16.80
2018-11-10T19:12:48.182Z,16.80
2018-11-10T19:15:19.230Z,16.80
2018-11-10T19:17:48.162Z,16.60
2018-11-10T19:20:18.059Z,16.60
2018-11-10T19:22:47.100Z,16.50
2018-11-10T19:25:16.301Z,16.50
2018-11-10T19:27:46.050Z,16.40
2018-11-10T19:30:19.775Z,16.40
2018-11-10T19:32:49.604Z,16.40
2018-11-10T19:35:20.387Z,16.30
2018-11-10T19:37:49.836Z,16.30
2018-11-10T19:40:18.852Z,16.20
2018-11-10T19:42:47.920Z,16.30
2018-11-10T19:45:17.761Z,15.50
2018-11-10T19:47:47.134Z,14.50
2018-11-10T19:50:16.405Z,14.10
2018-11-10T19:52:45.424Z,14.00
2018-11-10T19:55:16.711Z,13.90
2018-11-10T19:57:45.875Z,13.90
2018-11-10T20:00:19.973Z,13.70
2018-11-10T20:02:48.880Z,13.60
2018-11-10T20:05:17.994Z,13.50
2018-11-10T20:07:47.884Z,13.40
2018-11-10T20:10:17.307Z,13.00
2018-11-10T20:12:46.480Z,12.70
2018-11-10T20:15:16.188Z,12.80
2018-11-10T20:17:46.115Z,12.90
2018-11-10T20:20:16.947Z,13.10
2018-11-10T20:22:46.556Z,13.00
2018-11-10T20:25:17.297Z,13.10
2018-11-10T20:27:46.196Z,12.60
2018-11-10T20:30:17.591Z,11.90
2018-11-10T20:32:46.749Z,11.20
2018-11-10T20:35:15.655Z,11.10
2018-11-10T20:37:45.736Z,11.10
2018-11-10T20:40:15.722Z,11.20
2018-11-10T20:42:44.660Z,11.10
2018-11-10T20:45:16.591Z,11.40
2018-11-10T20:47:45.768Z,11.80
2018-11-10T20:50:15.955Z,12.10
2018-11-10T20:52:45.263Z,12.20
2018-11-10T20:55:14.614Z,12.20
2018-11-10T20:57:44.488Z,11.80
2018-11-10T21:00:17.783Z,11.50
2018-11-10T21:02:47.231Z,11.40
2018-11-10T21:05:16.451Z,11.30
2018-11-10T21:07:45.415Z,11.10
2018-11-10T21:10:17.004Z,11.10
2018-11-10T21:12:46.644Z,11.30
2018-11-10T21:15:16.361Z,11.50
2018-11-10T21:17:45.718Z,11.50
2018-11-10T21:20:15.897Z,11.40
2018-11-10T21:22:45.060Z,11.00
2018-11-10T21:25:15.555Z,10.90
2018-11-10T21:27:44.854Z,10.80
2018-11-10T21:30:15.183Z,10.80
2018-11-10T21:32:44.787Z,10.80
2018-11-10T21:35:13.724Z,11.00
2018-11-10T21:37:42.717Z,11.20
2018-11-10T21:40:13.879Z,11.50
2018-11-10T21:42:43.370Z,11.60
2018-11-10T21:45:13.399Z,11.60
2018-11-10T21:47:42.560Z,11.80
2018-11-10T21:50:13.663Z,12.20
2018-11-10T21:52:43.550Z,12.00
2018-11-10T21:55:13.997Z,11.40
2018-11-10T21:57:43.919Z,11.00
2018-11-10T22:00:17.832Z,10.90
2018-11-10T22:02:47.164Z,10.80
2018-11-10T22:05:16.723Z,10.70
2018-11-10T22:07:45.618Z,10.60
2018-11-10T22:10:15.890Z,10.40
2018-11-10T22:12:46.639Z,10.60
2018-11-10T22:15:18.934Z,10.60
2018-11-10T22:17:48.355Z,10.50
2018-11-10T22:20:19.274Z,10.60
2018-11-10T22:22:48.244Z,10.40
2018-11-10T22:25:17.553Z,10.40
2018-11-10T22:27:48.318Z,10.50
2018-11-10T22:30:18.762Z,10.60
2018-11-10T22:32:48.196Z,10.70
2018-11-10T22:35:17.132Z,10.70
2018-11-10T22:37:46.026Z,10.80
2018-11-10T22:40:16.754Z,10.60
2018-11-10T22:42:45.964Z,10.80
2018-11-10T22:45:16.131Z,10.90
2018-11-10T22:47:45.096Z,10.70
2018-11-10T22:50:15.844Z,10.60
2018-11-10T22:52:45.007Z,10.50
2018-11-10T22:55:13.913Z,10.40
2018-11-10T22:57:42.821Z,10.50
2018-11-10T23:00:16.839Z,10.40
2018-11-10T23:02:51.712Z,10.20
2018-11-10T23:05:21.332Z,10.20
2018-11-10T23:07:50.238Z,10.30
2018-11-10T23:10:26.230Z,10.30
2018-11-10T23:12:55.138Z,10.30
2018-11-10T23:15:24.036Z,10.20
2018-11-10T23:17:52.926Z,10.30
2018-11-10T23:20:21.782Z,10.30
2018-11-10T23:22:51.049Z,10.00
2018-11-10T23:25:20.251Z,10.00
2018-11-10T23:27:49.380Z,9.90
2018-11-10T23:30:19.653Z,9.80
2018-11-10T23:32:48.644Z,9.70
2018-11-10T23:35:17.506Z,9.70
2018-11-10T23:37:46.642Z,9.80
2018-11-10T23:40:16.546Z,9.70
2018-11-10T23:42:45.530Z,9.70
2018-11-10T23:45:15.364Z,9.60
2018-11-10T23:47:44.233Z,9.60
2018-11-10T23:50:15.383Z,9.70
2018-11-10T23:52:44.998Z,9.60
2018-11-10T23:55:14.701Z,9.50
2018-11-10T23:57:44.614Z,9.40
